Time;durP1;ratioP1;P1;durP2;ratioP2;P2;SDS_P1;SDS_P2;PMS_P1;PMS_P2;Temp;Humidity;BMP_temperature;BMP_pressure;BME280_temperature;BME280_humidity;BME280_pressure;Samples;Min_cycle;Max_cycle;Signal;HPM_P1;HPM_P2
2021/08/26 00:00:30;;;;;;;12.23;7.40;;;16.60;99.90;;;;;;5003186;28;20030;-63
2021/08/26 00:05:50;;;;;;;15.13;9.30;;;16.70;99.90;;;;;;5010426;28;20103;-62
2021/08/26 00:08:17;;;;;;;12.20;9.07;;;16.50;99.90;;;;;;5008752;28;20034;-63
2021/08/26 00:10:43;;;;;;;18.52;12.07;;;16.50;99.90;;;;;;5006371;28;20566;-63
2021/08/26 00:13:10;;;;;;;16.50;11.70;;;16.50;99.90;;;;;;5009787;28;20017;-62
2021/08/26 00:15:39;;;;;;;19.05;14.52;;;16.50;99.90;;;;;;5011097;28;20531;-62
2021/08/26 00:18:04;;;;;;;24.70;15.27;;;16.50;99.90;;;;;;5001669;28;20049;-63
2021/08/26 00:20:30;;;;;;;19.27;13.07;;;16.50;99.90;;;;;;5007278;28;20026;-63
2021/08/26 00:22:56;;;;;;;21.50;13.57;;;16.50;99.90;;;;;;5009790;28;20096;-62
2021/08/26 00:25:21;;;;;;;18.02;13.10;;;16.50;99.90;;;;;;5011817;28;20029;-64
2021/08/26 00:27:47;;;;;;;27.20;14.57;;;16.50;99.90;;;;;;5003518;28;20521;-62
2021/08/26 00:30:13;;;;;;;19.33;13.63;;;16.50;99.90;;;;;;5008139;28;20026;-62
2021/08/26 00:32:38;;;;;;;32.35;16.17;;;16.40;99.90;;;;;;5008899;28;20563;-63
2021/08/26 00:35:04;;;;;;;25.30;16.73;;;16.40;99.90;;;;;;5006041;28;20487;-63
2021/08/26 00:37:30;;;;;;;24.05;15.77;;;16.40;99.90;;;;;;5001652;28;20027;-64
2021/08/26 00:39:55;;;;;;;24.17;16.50;;;16.40;99.90;;;;;;5007381;28;20033;-63
2021/08/26 00:42:25;;;;;;;24.63;17.00;;;16.30;99.90;;;;;;5010274;28;20076;-62
2021/08/26 00:44:51;;;;;;;28.63;17.73;;;16.20;99.90;;;;;;5008818;28;20392;-63
2021/08/26 00:47:17;;;;;;;24.08;16.58;;;16.10;99.90;;;;;;5003446;28;20090;-63
2021/08/26 00:49:43;;;;;;;28.08;16.05;;;16.10;99.90;;;;;;5009398;28;20038;-63
2021/08/26 00:52:10;;;;;;;25.40;16.08;;;16.10;99.90;;;;;;5010068;28;20556;-63
2021/08/26 00:54:36;;;;;;;27.10;14.27;;;16.10;99.90;;;;;;5012040;28;20022;-62
2021/08/26 00:57:02;;;;;;;21.42;14.60;;;16.00;99.90;;;;;;5004076;28;20037;-62
2021/08/26 00:59:28;;;;;;;23.90;13.50;;;16.00;99.90;;;;;;5008906;28;20068;-61
2021/08/26 01:02:21;;;;;;;24.45;14.52;;;16.00;99.90;;;;;;5004664;28;20054;-64
2021/08/26 01:04:50;;;;;;;23.10;12.27;;;16.00;99.90;;;;;;5008317;28;20022;-65
2021/08/26 01:07:25;;;;;;;20.40;12.00;;;16.00;99.90;;;;;;5005989;28;20026;-65
2021/08/26 01:09:56;;;;;;;17.20;10.70;;;16.00;99.90;;;;;;5007051;28;20501;-63
2021/08/26 01:12:23;;;;;;;19.70;11.95;;;16.00;99.90;;;;;;5006142;28;20508;-61
2021/08/26 01:14:53;;;;;;;19.63;11.30;;;15.90;99.90;;;;;;5007369;28;20026;-65
2021/08/26 01:17:30;;;;;;;15.95;10.23;;;15.90;99.90;;;;;;5006564;28;20080;-64
2021/08/26 01:20:00;;;;;;;21.52;11.70;;;16.00;99.90;;;;;;5003176;28;20033;-64
2021/08/26 01:22:27;;;;;;;24.27;11.60;;;16.00;99.90;;;;;;5008629;28;20026;-62
2021/08/26 01:24:56;;;;;;;19.58;12.27;;;16.00;99.90;;;;;;5009684;28;20381;-64
2021/08/26 01:27:24;;;;;;;17.45;10.27;;;16.00;99.90;;;;;;5006076;28;20026;-62
2021/08/26 01:29:51;;;;;;;14.88;10.57;;;15.90;99.90;;;;;;5004563;28;20060;-62
2021/08/26 01:32:21;;;;;;;18.55;10.20;;;15.90;99.90;;;;;;5007576;28;20029;-65
2021/08/26 01:34:49;;;;;;;19.00;9.27;;;15.90;99.90;;;;;;5010571;28;20041;-64
2021/08/26 01:37:19;;;;;;;21.58;9.10;;;15.90;99.90;;;;;;5007241;28;20022;-63
2021/08/26 01:39:52;;;;;;;16.85;8.63;;;15.90;99.90;;;;;;5006038;28;20061;-63
2021/08/26 01:42:25;;;;;;;15.45;9.00;;;15.90;99.90;;;;;;5000962;28;20113;-61
2021/08/26 01:44:55;;;;;;;19.15;9.75;;;16.00;99.90;;;;;;5003394;28;20036;-64
2021/08/26 01:47:21;;;;;;;13.07;7.80;;;15.90;99.90;;;;;;5007387;28;20428;-63
2021/08/26 01:49:47;;;;;;;14.80;9.18;;;15.90;99.90;;;;;;5008852;28;20038;-64
2021/08/26 01:52:15;;;;;;;16.92;8.95;;;15.90;99.90;;;;;;5007616;28;20026;-64
2021/08/26 01:54:47;;;;;;;14.85;9.20;;;15.80;99.90;;;;;;5008874;28;20034;-62
2021/08/26 01:57:12;;;;;;;16.67;9.50;;;15.70;99.90;;;;;;5005685;28;20536;-61
2021/08/26 01:59:38;;;;;;;15.40;8.65;;;15.70;99.90;;;;;;5009902;28;20042;-65
2021/08/26 02:02:03;;;;;;;10.80;8.20;;;15.70;99.90;;;;;;5010976;28;20273;-64
2021/08/26 02:04:29;;;;;;;14.60;9.30;;;15.70;99.90;;;;;;5011014;28;20022;-63
2021/08/26 02:06:54;;;;;;;12.05;8.52;;;15.70;99.90;;;;;;5005490;28;20030;-63
2021/08/26 02:09:20;;;;;;;15.40;10.07;;;15.50;99.90;;;;;;5012272;28;20603;-65
2021/08/26 02:11:45;;;;;;;13.70;9.57;;;15.60;99.90;;;;;;5010956;28;21169;-64
2021/08/26 02:14:11;;;;;;;14.65;9.38;;;15.50;99.90;;;;;;5011682;28;20044;-64
2021/08/26 02:16:36;;;;;;;15.25;9.40;;;15.50;99.90;;;;;;5008169;28;20048;-63
2021/08/26 02:19:02;;;;;;;14.98;9.40;;;15.50;99.90;;;;;;5012847;28;20029;-64
2021/08/26 02:21:28;;;;;;;18.98;9.88;;;15.50;99.90;;;;;;4999446;28;20525;-64
2021/08/26 02:23:55;;;;;;;13.82;9.57;;;15.50;99.90;;;;;;5008472;28;20026;-64
2021/08/26 02:26:21;;;;;;;18.85;10.68;;;15.50;99.90;;;;;;5007906;28;20386;-62
2021/08/26 02:28:46;;;;;;;14.65;9.73;;;15.50;99.90;;;;;;5012218;28;20052;-63
2021/08/26 02:31:12;;;;;;;17.42;9.85;;;15.50;99.90;;;;;;5012627;28;20052;-63
2021/08/26 02:33:38;;;;;;;12.52;9.57;;;15.40;99.90;;;;;;5012935;28;20053;-64
2021/08/26 02:36:04;;;;;;;16.75;10.15;;;15.50;99.90;;;;;;5009784;28;20045;-62
2021/08/26 02:38:29;;;;;;;15.80;9.95;;;15.50;99.90;;;;;;5012723;28;20040;-63
2021/08/26 02:40:55;;;;;;;17.60;11.23;;;15.50;99.90;;;;;;5012073;28;20026;-63
2021/08/26 02:43:20;;;;;;;18.13;11.70;;;15.50;99.90;;;;;;5009670;28;20037;-63
2021/08/26 02:45:46;;;;;;;16.88;10.80;;;15.50;99.90;;;;;;4988972;28;20026;-63
2021/08/26 02:48:11;;;;;;;16.33;10.95;;;15.50;99.90;;;;;;5009556;28;20049;-63
2021/08/26 02:50:37;;;;;;;18.35;11.50;;;15.50;99.90;;;;;;5013028;28;20080;-64
2021/08/26 02:53:02;;;;;;;19.23;12.45;;;15.50;99.90;;;;;;5012443;28;20036;-64
2021/08/26 02:55:28;;;;;;;17.63;11.52;;;15.50;99.90;;;;;;5011198;28;20527;-63
2021/08/26 02:57:54;;;;;;;21.85;12.38;;;15.40;99.90;;;;;;5008549;28;20032;-62
2021/08/26 03:00:19;;;;;;;21.17;12.90;;;15.40;99.90;;;;;;5010457;28;20102;-62
2021/08/26 03:02:45;;;;;;;20.23;8.10;;;15.40;99.90;;;;;;5011712;28;20056;-62
2021/08/26 03:05:10;;;;;;;16.85;7.22;;;15.20;99.90;;;;;;5012871;28;20322;-61
2021/08/26 03:07:36;;;;;;;17.92;6.55;;;15.10;99.90;;;;;;5011854;28;20030;-61
2021/08/26 03:10:02;;;;;;;16.58;6.47;;;15.10;99.90;;;;;;5011155;28;20038;-61
2021/08/26 03:12:27;;;;;;;13.75;6.68;;;15.00;99.90;;;;;;5012369;28;20061;-63
2021/08/26 03:14:53;;;;;;;17.40;6.88;;;15.00;99.90;;;;;;5013021;28;20502;-62
2021/08/26 03:17:18;;;;;;;12.98;6.18;;;15.00;99.90;;;;;;5040110;23;20538;-64
2021/08/26 03:19:44;;;;;;;18.73;6.28;;;15.00;99.90;;;;;;5038573;28;20451;-63
2021/08/26 03:22:09;;;;;;;14.18;6.40;;;14.90;99.90;;;;;;5042331;28;20033;-64
2021/08/26 03:24:35;;;;;;;16.70;7.40;;;14.90;99.90;;;;;;5040731;28;20126;-64
2021/08/26 03:27:01;;;;;;;16.75;7.72;;;14.90;99.90;;;;;;5035097;28;20079;-64
2021/08/26 03:29:26;;;;;;;23.15;10.40;;;14.90;99.90;;;;;;5036372;28;20082;-64
2021/08/26 03:31:52;;;;;;;16.95;8.95;;;14.80;99.90;;;;;;5042273;28;20029;-64
2021/08/26 03:34:17;;;;;;;13.02;7.85;;;14.80;99.90;;;;;;5046685;28;20091;-64
2021/08/26 03:36:43;;;;;;;25.30;9.65;;;14.90;99.90;;;;;;5042478;28;20090;-64
2021/08/26 03:39:08;;;;;;;17.40;8.10;;;14.80;99.90;;;;;;5036067;28;20033;-64
2021/08/26 03:41:34;;;;;;;21.63;7.85;;;14.80;99.90;;;;;;5042210;28;20481;-64
2021/08/26 03:43:59;;;;;;;20.10;8.30;;;14.80;99.90;;;;;;5043611;28;20040;-64
2021/08/26 03:46:25;;;;;;;26.60;8.52;;;14.90;99.90;;;;;;5033447;28;20064;-64
2021/08/26 03:48:51;;;;;;;17.10;8.43;;;14.80;99.90;;;;;;5036265;28;20029;-63
2021/08/26 03:51:16;;;;;;;15.52;7.78;;;14.80;99.90;;;;;;5041590;28;20025;-63
2021/08/26 03:53:42;;;;;;;27.75;8.40;;;14.80;99.90;;;;;;5037244;28;20503;-64
2021/08/26 03:56:08;;;;;;;15.93;7.43;;;14.80;99.90;;;;;;5035420;28;20482;-65
2021/08/26 03:58:34;;;;;;;17.42;7.13;;;14.80;99.90;;;;;;5042013;28;20021;-64
2021/08/26 04:01:05;;;;;;;18.40;6.93;;;14.80;99.90;;;;;;5031648;28;20021;-64
2021/08/26 04:03:31;;;;;;;13.30;5.90;;;14.90;99.90;;;;;;5043340;28;20033;-64
2021/08/26 04:05:57;;;;;;;11.93;7.13;;;14.90;99.90;;;;;;5045571;28;20021;-66
2021/08/26 04:08:23;;;;;;;13.60;6.25;;;14.90;99.90;;;;;;5037512;28;20029;-63
2021/08/26 04:10:49;;;;;;;17.88;5.93;;;14.90;99.90;;;;;;5036713;28;20120;-66
2021/08/26 04:13:14;;;;;;;12.55;5.85;;;14.90;99.90;;;;;;5036322;28;20048;-65
2021/08/26 04:15:40;;;;;;;19.45;5.85;;;14.90;99.90;;;;;;5033478;28;20025;-65
2021/08/26 04:18:05;;;;;;;20.65;6.07;;;14.80;99.90;;;;;;5038651;28;20108;-64
2021/08/26 04:20:31;;;;;;;11.07;5.45;;;14.80;99.90;;;;;;5037509;28;20456;-65
2021/08/26 04:22:57;;;;;;;16.10;5.18;;;14.80;99.90;;;;;;5040017;28;20036;-63
2021/08/26 04:25:22;;;;;;;17.80;5.32;;;14.80;99.90;;;;;;5035707;28;20053;-65
2021/08/26 04:27:48;;;;;;;13.02;5.22;;;14.90;99.90;;;;;;5036399;28;20033;-65
2021/08/26 04:30:14;;;;;;;18.10;5.38;;;14.90;99.90;;;;;;5034505;28;20066;-66
2021/08/26 04:32:39;;;;;;;17.23;5.70;;;14.90;99.90;;;;;;5032511;28;20064;-65
2021/08/26 04:35:06;;;;;;;17.23;5.68;;;14.90;99.90;;;;;;5035505;28;20064;-65
2021/08/26 04:37:31;;;;;;;14.45;5.43;;;14.90;99.90;;;;;;5043754;28;20036;-65
2021/08/26 04:39:57;;;;;;;16.92;6.15;;;14.90;99.90;;;;;;5046107;28;20033;-64
2021/08/26 04:42:23;;;;;;;16.98;6.07;;;14.90;99.90;;;;;;5040375;28;20090;-63
2021/08/26 04:44:48;;;;;;;12.65;5.43;;;15.00;99.90;;;;;;5038950;28;20064;-64
2021/08/26 04:47:14;;;;;;;16.20;5.72;;;15.00;99.90;;;;;;5039506;28;20092;-64
2021/08/26 04:49:39;;;;;;;18.88;6.47;;;15.00;99.90;;;;;;5034289;28;20024;-65
2021/08/26 04:52:05;;;;;;;16.67;6.40;;;15.00;99.90;;;;;;5030762;28;20040;-64
2021/08/26 04:54:31;;;;;;;16.35;7.18;;;15.00;99.90;;;;;;5033472;28;20025;-64
2021/08/26 04:56:56;;;;;;;13.18;6.30;;;15.00;99.90;;;;;;5041216;28;20041;-64
2021/08/26 04:59:22;;;;;;;15.13;6.10;;;15.00;99.90;;;;;;5033699;28;20029;-64
2021/08/26 05:01:47;;;;;;;17.60;6.70;;;15.00;99.90;;;;;;5037549;28;20508;-64
2021/08/26 05:04:13;;;;;;;15.25;6.03;;;15.00;99.90;;;;;;5037974;28;20030;-64
2021/08/26 05:06:39;;;;;;;15.02;5.85;;;15.00;99.90;;;;;;5033058;28;20033;-64
2021/08/26 05:09:04;;;;;;;14.10;6.20;;;15.10;99.90;;;;;;5036235;28;20036;-65
2021/08/26 05:11:30;;;;;;;13.60;6.22;;;15.10;99.90;;;;;;5046656;28;20017;-64
2021/08/26 05:13:55;;;;;;;13.50;5.75;;;15.10;99.90;;;;;;5039209;28;20554;-65
2021/08/26 05:16:21;;;;;;;18.42;6.18;;;15.10;99.90;;;;;;5033195;28;20036;-64
2021/08/26 05:18:46;;;;;;;18.77;6.30;;;15.10;99.90;;;;;;5032371;28;20023;-63
2021/08/26 05:21:12;;;;;;;17.25;6.07;;;15.10;99.90;;;;;;5033670;28;20056;-64
2021/08/26 05:23:38;;;;;;;10.00;5.25;;;15.10;99.90;;;;;;5034201;28;20057;-65
2021/08/26 05:26:04;;;;;;;21.25;6.25;;;15.20;99.90;;;;;;5035859;28;20024;-64
2021/08/26 05:28:29;;;;;;;15.85;6.78;;;15.20;99.90;;;;;;5025933;28;20026;-64
2021/08/26 05:30:55;;;;;;;17.73;7.50;;;15.20;99.90;;;;;;5029441;28;20484;-64
2021/08/26 05:33:20;;;;;;;20.02;7.47;;;15.10;99.90;;;;;;5030839;28;20172;-64
2021/08/26 05:35:46;;;;;;;23.42;7.20;;;15.10;99.90;;;;;;5033948;28;20025;-64
2021/08/26 05:38:13;;;;;;;34.03;8.88;;;15.10;99.90;;;;;;5041575;28;20107;-64
2021/08/26 05:40:38;;;;;;;26.92;7.55;;;15.10;99.90;;;;;;5041343;28;20048;-62
2021/08/26 05:43:04;;;;;;;20.98;7.60;;;15.10;99.90;;;;;;5048034;28;20506;-63
2021/08/26 05:45:30;;;;;;;21.98;8.05;;;15.10;99.90;;;;;;5038353;28;20103;-63
2021/08/26 05:47:56;;;;;;;24.52;8.20;;;15.10;99.90;;;;;;5040589;28;20566;-64
2021/08/26 05:50:23;;;;;;;18.38;7.85;;;15.10;99.90;;;;;;5039037;28;20091;-64
2021/08/26 05:52:50;;;;;;;16.38;7.53;;;15.20;99.90;;;;;;5036729;28;20092;-63
2021/08/26 05:55:16;;;;;;;18.48;7.90;;;15.20;99.90;;;;;;5045018;28;20071;-63
2021/08/26 05:57:42;;;;;;;23.67;7.93;;;15.20;99.90;;;;;;5041394;28;20479;-63
2021/08/26 06:00:10;;;;;;;19.48;8.82;;;15.30;99.90;;;;;;5046373;28;20074;-63
2021/08/26 06:02:35;;;;;;;18.48;7.68;;;15.30;99.90;;;;;;5041641;28;20037;-63
2021/08/26 06:05:01;;;;;;;23.95;8.65;;;15.30;99.90;;;;;;5039894;28;20029;-63
2021/08/26 06:07:26;;;;;;;24.27;8.40;;;15.30;99.90;;;;;;5045529;28;20033;-63
2021/08/26 06:09:52;;;;;;;21.42;7.00;;;15.40;99.90;;;;;;5044817;28;20036;-63
2021/08/26 06:12:18;;;;;;;20.02;7.38;;;15.40;99.90;;;;;;5040855;28;20040;-63
2021/08/26 06:14:43;;;;;;;20.67;7.32;;;15.40;99.90;;;;;;5034970;28;20033;-62
2021/08/26 06:17:09;;;;;;;17.05;7.10;;;15.40;99.90;;;;;;5043006;28;20025;-64
2021/08/26 06:19:34;;;;;;;23.25;7.18;;;15.40;99.90;;;;;;5045191;28;20071;-63
2021/08/26 06:22:00;;;;;;;20.75;6.88;;;15.40;99.90;;;;;;5045424;28;20078;-63
2021/08/26 06:24:25;;;;;;;23.30;7.43;;;15.30;99.90;;;;;;5039005;28;20029;-63
2021/08/26 06:26:51;;;;;;;25.98;6.70;;;15.30;99.90;;;;;;5038480;28;20112;-63
2021/08/26 06:29:16;;;;;;;19.88;6.07;;;15.40;99.90;;;;;;5040314;28;20098;-64
2021/08/26 06:31:44;;;;;;;17.15;5.68;;;15.40;99.90;;;;;;5042266;28;20065;-64
2021/08/26 06:34:10;;;;;;;18.00;4.28;;;15.40;99.90;;;;;;5038491;28;20116;-64
2021/08/26 06:36:35;;;;;;;23.63;4.85;;;15.40;99.90;;;;;;5036825;28;20223;-64
2021/08/26 06:39:01;;;;;;;24.00;5.03;;;15.40;99.90;;;;;;5044010;28;20083;-64
2021/08/26 06:41:26;;;;;;;19.00;4.88;;;15.50;99.90;;;;;;5041891;28;20075;-64
2021/08/26 06:43:52;;;;;;;19.35;5.20;;;15.50;99.90;;;;;;5033545;28;20029;-64
2021/08/26 06:46:18;;;;;;;10.23;3.63;;;15.50;99.90;;;;;;5035198;28;20106;-64
2021/08/26 06:48:44;;;;;;;14.45;4.63;;;15.60;99.90;;;;;;5037381;28;20028;-64
2021/08/26 06:51:09;;;;;;;13.43;3.40;;;15.60;99.90;;;;;;5039464;28;20029;-64
2021/08/26 06:53:35;;;;;;;13.13;3.95;;;15.60;99.90;;;;;;5035816;28;20033;-64
2021/08/26 06:56:00;;;;;;;15.63;4.22;;;15.60;99.90;;;;;;5036144;28;20025;-64
2021/08/26 06:58:26;;;;;;;15.02;3.38;;;15.60;99.90;;;;;;5034127;28;20048;-64
2021/08/26 07:00:51;;;;;;;19.83;4.00;;;15.60;99.90;;;;;;5035555;28;20025;-64
2021/08/26 07:03:17;;;;;;;21.45;3.92;;;15.70;99.90;;;;;;5035846;28;20566;-64
2021/08/26 07:05:42;;;;;;;8.77;3.05;;;15.70;99.90;;;;;;5045282;28;20032;-64
2021/08/26 07:08:08;;;;;;;9.15;3.30;;;15.70;99.90;;;;;;5038022;28;20024;-64
2021/08/26 07:10:33;;;;;;;12.70;3.35;;;15.70;99.90;;;;;;5043190;28;20052;-63
2021/08/26 07:12:59;;;;;;;14.45;4.30;;;15.70;99.90;;;;;;5044383;28;20033;-64
2021/08/26 07:15:25;;;;;;;21.13;4.18;;;15.70;99.90;;;;;;5043162;28;20024;-64
2021/08/26 07:17:52;;;;;;;19.85;4.30;;;15.70;99.90;;;;;;5034185;28;20030;-63
2021/08/26 07:20:17;;;;;;;12.82;4.03;;;15.80;99.90;;;;;;5040125;28;20104;-64
2021/08/26 07:22:43;;;;;;;12.02;4.38;;;15.80;99.90;;;;;;5040258;28;20105;-64
2021/08/26 07:25:10;;;;;;;20.67;5.13;;;15.90;99.90;;;;;;5038715;28;20026;-65
2021/08/26 07:27:36;;;;;;;23.75;4.95;;;15.90;99.90;;;;;;5038693;28;20043;-65
2021/08/26 07:30:02;;;;;;;20.83;5.03;;;16.00;99.90;;;;;;5044823;28;20029;-64
2021/08/26 07:32:27;;;;;;;24.80;4.32;;;16.00;99.90;;;;;;5041533;28;20048;-64
2021/08/26 07:34:53;;;;;;;21.00;5.28;;;16.00;99.90;;;;;;5037366;28;20489;-64
2021/08/26 07:37:18;;;;;;;16.10;4.50;;;16.00;99.90;;;;;;5040037;28;20231;-65
2021/08/26 07:39:44;;;;;;;13.48;4.90;;;16.10;99.90;;;;;;5034510;28;20607;-64
2021/08/26 07:42:10;;;;;;;18.80;5.00;;;16.20;99.90;;;;;;5038604;28;20540;-63
2021/08/26 07:44:36;;;;;;;20.17;4.95;;;16.10;99.90;;;;;;5035243;28;20553;-64
2021/08/26 07:47:02;;;;;;;16.35;5.30;;;16.10;99.90;;;;;;5041872;28;20040;-63
2021/08/26 07:49:27;;;;;;;24.25;5.45;;;16.10;99.90;;;;;;5038030;28;20026;-64
2021/08/26 07:51:53;;;;;;;22.58;5.13;;;16.10;99.90;;;;;;5038635;28;20060;-64
2021/08/26 07:54:18;;;;;;;22.42;5.18;;;16.20;99.90;;;;;;5042195;28;20035;-64
2021/08/26 07:56:44;;;;;;;25.83;5.80;;;16.10;99.90;;;;;;5036301;28;20025;-65
2021/08/26 07:59:10;;;;;;;29.88;4.95;;;16.10;99.90;;;;;;5038224;28;20423;-64
2021/08/26 08:01:35;;;;;;;27.85;5.57;;;16.20;99.90;;;;;;5039702;28;20531;-64
2021/08/26 08:04:01;;;;;;;18.52;5.88;;;16.20;99.90;;;;;;5037384;28;20710;-64
2021/08/26 08:06:26;;;;;;;23.60;6.95;;;16.20;99.90;;;;;;5038414;28;20091;-65
2021/08/26 08:08:52;;;;;;;21.17;5.88;;;16.30;99.90;;;;;;5037626;28;20026;-65
2021/08/26 08:11:18;;;;;;;25.63;7.25;;;16.40;99.90;;;;;;5039780;28;20029;-65
2021/08/26 08:13:43;;;;;;;23.30;7.40;;;16.50;99.90;;;;;;5045807;28;20039;-65
2021/08/26 08:16:11;;;;;;;25.55;7.30;;;16.50;99.90;;;;;;5039619;28;20025;-64
2021/08/26 08:18:36;;;;;;;29.17;8.23;;;16.50;99.90;;;;;;5037670;28;20120;-64
2021/08/26 08:21:02;;;;;;;23.50;7.50;;;16.50;99.90;;;;;;5038359;28;20551;-63
2021/08/26 08:23:31;;;;;;;21.10;7.43;;;16.30;99.90;;;;;;5042194;28;20032;-65
2021/08/26 08:25:57;;;;;;;25.13;7.50;;;16.30;99.90;;;;;;5035557;28;20022;-65
2021/08/26 08:28:23;;;;;;;24.88;7.50;;;16.30;99.90;;;;;;5039489;28;20424;-64
2021/08/26 08:30:48;;;;;;;25.50;7.20;;;16.30;99.90;;;;;;5040394;28;20044;-63
2021/08/26 08:33:14;;;;;;;28.40;8.13;;;16.30;99.90;;;;;;5042116;28;20024;-65
2021/08/26 08:35:40;;;;;;;24.63;7.15;;;16.30;99.90;;;;;;5030176;28;20041;-65
2021/08/26 08:38:06;;;;;;;22.27;7.70;;;16.50;99.90;;;;;;5031272;28;20096;-64
2021/08/26 08:40:32;;;;;;;27.27;7.32;;;16.50;99.90;;;;;;5034432;28;20026;-65
2021/08/26 08:42:59;;;;;;;26.42;6.43;;;16.60;99.90;;;;;;5033803;28;20489;-65
2021/08/26 08:45:25;;;;;;;25.88;7.07;;;16.60;99.90;;;;;;5044633;28;20025;-63
2021/08/26 08:47:52;;;;;;;16.73;4.65;;;16.60;99.90;;;;;;5038013;28;20044;-63
2021/08/26 08:50:22;;;;;;;20.65;5.28;;;16.60;99.90;;;;;;5034320;28;20029;-64
2021/08/26 08:52:48;;;;;;;24.40;5.75;;;16.70;99.90;;;;;;5031627;28;20503;-65
2021/08/26 08:55:14;;;;;;;17.42;4.90;;;16.70;99.90;;;;;;5037984;28;20348;-64
2021/08/26 08:57:44;;;;;;;21.58;4.80;;;16.80;99.90;;;;;;5033046;28;20033;-65
2021/08/26 09:00:14;;;;;;;17.40;5.13;;;16.80;99.90;;;;;;5039869;28;20116;-64
2021/08/26 09:02:40;;;;;;;17.58;4.90;;;16.80;99.90;;;;;;5033017;28;20022;-65
2021/08/26 09:05:06;;;;;;;12.88;3.90;;;16.80;99.90;;;;;;5031681;28;20534;-65
2021/08/26 09:07:34;;;;;;;17.70;3.65;;;16.80;99.90;;;;;;5040113;28;20030;-65
2021/08/26 09:10:00;;;;;;;13.20;3.17;;;16.70;99.90;;;;;;5045810;28;20040;-64
2021/08/26 09:12:41;;;;;;;19.33;4.40;;;16.80;99.90;;;;;;5042132;28;20025;-64
2021/08/26 09:15:17;;;;;;;12.15;3.42;;;16.70;99.90;;;;;;5046105;28;20021;-64
2021/08/26 09:17:45;;;;;;;18.75;3.58;;;16.70;99.90;;;;;;5055240;22;20041;-58
2021/08/26 09:20:14;;;;;;;19.90;3.60;;;16.70;99.90;;;;;;5014006;28;20069;-62
2021/08/26 09:22:40;;;;;;;12.88;4.15;;;16.80;99.90;;;;;;5009557;28;20065;-61
2021/08/26 09:25:06;;;;;;;17.65;3.90;;;17.00;99.90;;;;;;5013783;28;20080;-61
2021/08/26 09:27:32;;;;;;;15.35;4.70;;;17.00;99.90;;;;;;5013255;28;20110;-62
2021/08/26 09:30:05;;;;;;;13.45;3.97;;;17.00;99.90;;;;;;5014176;28;20030;-61
2021/08/26 09:32:38;;;;;;;13.27;3.78;;;17.00;99.90;;;;;;5010355;28;20037;-62
2021/08/26 09:35:22;;;;;;;18.60;4.15;;;17.00;99.90;;;;;;5008804;28;20061;-62
2021/08/26 09:38:00;;;;;;;15.33;4.30;;;17.10;99.90;;;;;;5011724;28;20060;-62
2021/08/26 09:40:32;;;;;;;14.82;3.67;;;17.10;99.90;;;;;;5013946;28;20074;-60
2021/08/26 09:43:05;;;;;;;16.63;3.67;;;17.10;99.90;;;;;;5010527;28;20030;-62
2021/08/26 09:45:33;;;;;;;16.10;3.63;;;17.30;99.90;;;;;;5013396;28;20492;-61
2021/08/26 09:48:00;;;;;;;14.50;4.07;;;17.30;99.90;;;;;;5013518;28;20055;-62
2021/08/26 09:50:44;;;;;;;19.00;3.53;;;17.20;99.90;;;;;;5012010;28;20520;-61
2021/08/26 09:53:11;;;;;;;22.00;4.07;;;17.10;99.90;;;;;;5011433;28;20042;-58
2021/08/26 09:55:53;;;;;;;13.52;4.35;;;16.90;99.90;;;;;;5009940;28;20495;-62
2021/08/26 09:58:23;;;;;;;18.92;4.43;;;16.70;99.90;;;;;;5007739;28;20424;-62
2021/08/26 10:00:49;;;;;;;16.67;4.78;;;16.60;99.90;;;;;;5009298;28;20038;-62
2021/08/26 10:03:16;;;;;;;20.92;4.55;;;16.40;99.90;;;;;;5014315;28;20026;-61
2021/08/26 10:05:44;;;;;;;15.98;4.55;;;16.30;99.90;;;;;;5013959;28;20018;-62
2021/08/26 10:08:11;;;;;;;17.45;5.60;;;16.30;99.90;;;;;;5013483;28;20065;-62
2021/08/26 10:10:41;;;;;;;19.42;5.07;;;16.30;99.90;;;;;;5012471;28;20394;-60
2021/08/26 10:13:07;;;;;;;22.95;5.75;;;16.50;99.90;;;;;;5012015;28;20069;-62
2021/08/26 10:15:33;;;;;;;14.50;4.43;;;16.60;99.90;;;;;;5009754;28;20081;-61
2021/08/26 10:18:00;;;;;;;18.25;4.45;;;16.60;99.90;;;;;;5008609;28;20177;-61
2021/08/26 10:20:26;;;;;;;12.32;4.20;;;16.50;99.90;;;;;;5012152;28;20029;-62
2021/08/26 10:22:52;;;;;;;11.02;3.00;;;16.50;99.90;;;;;;5010089;28;20378;-66
2021/08/26 10:25:18;;;;;;;11.38;3.17;;;16.40;99.90;;;;;;5008899;28;20032;-65
2021/08/26 10:27:45;;;;;;;8.77;3.30;;;16.30;99.90;;;;;;5011795;28;20029;-62
2021/08/26 10:30:30;;;;;;;10.63;3.28;;;16.40;99.90;;;;;;5006889;28;20061;-62
2021/08/26 10:33:16;;;;;;;13.57;3.35;;;16.40;99.90;;;;;;5006523;28;20022;-63
2021/08/26 10:35:50;;;;;;;14.93;3.58;;;16.40;99.90;;;;;;5013235;28;20129;-65
2021/08/26 10:38:33;;;;;;;9.10;3.20;;;16.40;99.90;;;;;;5012442;28;20029;-65
2021/08/26 10:41:18;;;;;;;13.88;3.90;;;16.40;99.90;;;;;;5011856;28;20029;-65
2021/08/26 10:43:57;;;;;;;10.77;3.00;;;16.50;99.90;;;;;;5008716;28;20037;-66
2021/08/26 10:46:49;;;;;;;9.48;2.80;;;16.50;99.90;;;;;;5010475;28;20033;-65
2021/08/26 10:49:16;;;;;;;7.78;2.15;;;16.70;99.90;;;;;;5010316;28;20053;-65
2021/08/26 10:51:43;;;;;;;12.45;2.50;;;16.80;99.90;;;;;;5013191;28;20033;-66
2021/08/26 10:54:33;;;;;;;9.20;2.88;;;17.00;99.90;;;;;;5011518;28;20076;-65
2021/08/26 10:57:23;;;;;;;7.35;2.40;;;17.00;99.90;;;;;;5003910;28;20108;-65
2021/08/26 10:59:50;;;;;;;14.80;2.35;;;16.90;99.90;;;;;;5010701;28;20030;-63
2021/08/26 11:02:39;;;;;;;5.20;1.85;;;17.10;99.90;;;;;;5013641;28;20026;-64
2021/08/26 11:05:33;;;;;;;12.02;2.47;;;17.30;99.90;;;;;;5008017;28;20026;-64
2021/08/26 11:07:59;;;;;;;10.55;2.85;;;17.30;99.90;;;;;;5008384;28;20030;-64
2021/08/26 11:10:28;;;;;;;13.23;3.80;;;17.30;99.90;;;;;;5007144;28;20581;-64
2021/08/26 11:13:26;;;;;;;11.77;3.65;;;17.20;99.90;;;;;;5010057;28;20041;-63
2021/08/26 11:15:51;;;;;;;9.63;3.35;;;17.10;99.90;;;;;;5012115;28;20026;-64
2021/08/26 11:18:28;;;;;;;11.30;4.03;;;17.10;99.90;;;;;;5005191;28;20549;-65
2021/08/26 11:20:55;;;;;;;9.73;3.97;;;17.20;99.90;;;;;;5013452;28;20034;-65
2021/08/26 11:23:45;;;;;;;14.75;5.22;;;17.30;99.90;;;;;;5013018;28;20022;-65
2021/08/26 11:26:44;;;;;;;12.73;3.97;;;17.30;99.90;;;;;;5010558;28;20030;-64
2021/08/26 11:29:25;;;;;;;6.65;3.25;;;17.40;99.90;;;;;;5012355;28;20053;-65
2021/08/26 11:31:53;;;;;;;11.65;3.58;;;17.40;99.90;;;;;;5011039;28;20401;-65
2021/08/26 11:34:48;;;;;;;13.13;3.35;;;17.40;99.90;;;;;;5007869;28;20037;-64
2021/08/26 11:37:17;;;;;;;11.25;3.45;;;17.40;99.90;;;;;;5003728;28;20493;-65
2021/08/26 11:40:00;;;;;;;9.70;3.50;;;17.50;99.90;;;;;;5006014;28;20401;-64
2021/08/26 11:42:34;;;;;;;13.38;3.08;;;17.50;99.90;;;;;;5010020;28;20394;-63
2021/08/26 11:45:09;;;;;;;;;;;17.70;99.90;;;;;;5009920;28;20037;-64
2021/08/26 11:47:37;;;;;;;13.85;3.10;;;17.90;99.90;;;;;;5005911;28;19909;-64
2021/08/26 11:50:09;;;;;;;11.35;3.03;;;18.30;99.90;;;;;;5010096;28;20034;-64
2021/08/26 11:52:35;;;;;;;9.50;2.88;;;18.70;99.90;;;;;;5007905;28;20030;-64
2021/08/26 11:55:00;;;;;;;15.85;3.63;;;19.20;99.90;;;;;;5012438;28;20049;-64
2021/08/26 11:57:26;;;;;;;17.70;3.58;;;19.20;99.90;;;;;;5012304;28;20076;-64
2021/08/26 11:59:51;;;;;;;12.57;4.40;;;19.00;99.90;;;;;;5011928;28;20025;-63
2021/08/26 12:02:21;;;;;;;13.57;4.07;;;18.60;99.90;;;;;;5010650;28;20025;-65
2021/08/26 12:04:59;;;;;;;8.15;3.13;;;18.40;99.90;;;;;;5008079;28;20026;-65
2021/08/26 12:07:34;;;;;;;8.68;2.78;;;18.20;99.90;;;;;;5008677;28;20515;-64
2021/08/26 12:10:17;;;;;;;16.38;2.95;;;18.00;99.90;;;;;;5010700;28;20441;-64
2021/08/26 12:13:00;;;;;;;13.68;3.40;;;17.80;99.90;;;;;;5012231;28;20072;-64
2021/08/26 12:15:33;;;;;;;12.38;3.17;;;17.80;99.90;;;;;;5011192;28;20017;-65
2021/08/26 12:18:22;;;;;;;15.77;2.70;;;17.80;99.90;;;;;;5009480;28;20410;-64
2021/08/26 12:20:53;;;;;;;7.95;2.83;;;18.00;99.90;;;;;;5001499;28;20069;-64
2021/08/26 12:23:24;;;;;;;6.63;2.65;;;18.10;99.90;;;;;;5011546;28;20022;-64
2021/08/26 12:26:09;;;;;;;10.27;2.40;;;18.20;99.90;;;;;;5011648;28;20049;-65
2021/08/26 12:28:38;;;;;;;13.63;2.92;;;18.20;99.90;;;;;;5011109;28;20079;-65
2021/08/26 12:31:08;;;;;;;8.90;2.60;;;18.20;99.90;;;;;;5006350;28;20033;-64
2021/08/26 12:33:35;;;;;;;9.13;2.05;;;18.20;99.90;;;;;;5011839;28;20049;-64
2021/08/26 12:36:03;;;;;;;7.07;2.22;;;18.20;99.90;;;;;;5011789;28;20592;-64
2021/08/26 12:38:40;;;;;;;9.13;2.33;;;18.20;99.90;;;;;;5011109;28;20084;-64
2021/08/26 12:41:17;;;;;;;13.50;2.85;;;18.30;99.90;;;;;;5006874;28;20037;-64
2021/08/26 12:43:52;;;;;;;7.18;2.47;;;18.40;99.90;;;;;;5011422;28;20040;-64